world map with MVF marked

MVF - Airport

This information may not be accurate or current and is not valid for navigation or flight planning. No warranty of fitness for any purpose is made or implied.

flag of Rio Grande do Norteflag of Brazil

Donate via PayPal

Additional information is available on the NEW Great Circle Mapper

Location
City:  Mossorˇ, Rio Grande do Norte, Brazil
Near (Alt.):Mošorˇ
Name:Dix Sept Rosado
ICAO / IATA:SBMS / MVF

Details
Type:Airport (Aerodrome, Airfield)
Latitude:5░12'07"S (-5.201918)
Longitude:37░21'52"W (-37.364346)
Datum:WGS 1984
Elevation:77 ft (23 m)
Runways:1
Longest:6562 × 98 ft (2000 × 30 m)

Time
Timezone:UTC+31:08 (DST+33:08)
Local Time:

Weather
METAR:SBMS  041400Z 08008KT 9999 BKN025 36/22 Q1011

Related Locations
Nearby:
Farthest:FARP: 12168 mi / 19582 km
Faraulep Atoll, YAP, FM

Find:

   beyond  
but within

Other Information
Maps:
Sources:

  


 


Great Circle Mapper   Great Circle Mapper
Great Circle Mapper FAQ   Great Circle Mapper FAQ
  Karl's Home Page
KLS▓   KLS▓ Home
   GC on Facebook
Airlines of the World   Airlines of the World
Donate via PayPal


Copyright © 2004-2020, Karl L. Swartz. All rights reserved.
All trademarks mentioned herein belong to their respective owners.

Please see credits for attribution and copyright information.

Karl Swartz <karl@kls2.com>
  Powered by FreeBSD
Valid HTML 4.01!
Labeled with ICRA
hCard Microformat
Geo Microformat